FIN9DZ EPKK-EFHK
Flight info
| Callsign | FIN9DZ |
|---|---|
| Flight time | 1h 38m |
| Altitude | 37000 |
| Route | POBOK DCT LOGDA DCT SUWGI DCT BOKSU DCT GUNTA M857 SOKVA DCT ANAMA DCT KEMET Q11 INTOR |
| Aircraft | A321/M-SDE3FGHIRWY/LB1 |
Departure
| Time | 2026-04-25 19:54 |
|---|---|
| Airport | Kraków John Paul II International Airport (EPKK) |
Arrival
| Time | 2026-04-25 21:33 |
|---|---|
| Airport | Helsinki Vantaa Airport (EFHK) |
| Time | Latitude | Longitude | Altitude | Speed | Heading |
|---|---|---|---|---|---|
| 2026-04-25 18:56 | 50.07349 | 19.80110 | 800 ft | 0 kts | 166° |
| 2026-04-25 19:46 | 50.07351 | 19.80109 | 800 ft | 1 kts | 167° |
| 2026-04-25 19:46 | 50.07363 | 19.80100 | 800 ft | 2 kts | 141° |
| 2026-04-25 19:46 | 50.07373 | 19.80086 | 800 ft | 1 kts | 152° |
| 2026-04-25 19:47 | 50.07382 | 19.80081 | 800 ft | 1 kts | 175° |
| 2026-04-25 19:47 | 50.07396 | 19.80080 | 800 ft | 1 kts | 159° |
| 2026-04-25 19:47 | 50.07406 | 19.80069 | 800 ft | 1 kts | 129° |
| 2026-04-25 19:47 | 50.07412 | 19.80051 | 800 ft | 1 kts | 99° |
| 2026-04-25 19:48 | 50.07412 | 19.80036 | 800 ft | 1 kts | 75° |
| 2026-04-25 19:48 | 50.07408 | 19.80022 | 800 ft | 1 kts | 64° |
| 2026-04-25 19:48 | 50.07406 | 19.80012 | 800 ft | 0 kts | 77° |
| 2026-04-25 19:50 | 50.07407 | 19.80024 | 800 ft | 3 kts | 79° |
| 2026-04-25 19:50 | 50.07413 | 19.80070 | 800 ft | 5 kts | 80° |
| 2026-04-25 19:50 | 50.07419 | 19.80131 | 800 ft | 6 kts | 82° |
| 2026-04-25 19:51 | 50.07428 | 19.80215 | 800 ft | 8 kts | 79° |
| 2026-04-25 19:51 | 50.07441 | 19.80314 | 800 ft | 9 kts | 78° |
| 2026-04-25 19:51 | 50.07487 | 19.80385 | 800 ft | 10 kts | 18° |
| 2026-04-25 19:51 | 50.07557 | 19.80417 | 800 ft | 8 kts | 12° |
| 2026-04-25 19:52 | 50.07623 | 19.80411 | 800 ft | 9 kts | 348° |
| 2026-04-25 19:52 | 50.07693 | 19.80386 | 800 ft | 10 kts | 347° |
| 2026-04-25 19:52 | 50.07770 | 19.80360 | 800 ft | 11 kts | 348° |
| 2026-04-25 19:52 | 50.07853 | 19.80332 | 800 ft | 12 kts | 348° |
| 2026-04-25 19:53 | 50.07945 | 19.80302 | 800 ft | 14 kts | 348° |
| 2026-04-25 19:53 | 50.08012 | 19.80248 | 800 ft | 10 kts | 292° |
| 2026-04-25 19:53 | 50.08012 | 19.80198 | 800 ft | 0 kts | 256° |
| 2026-04-25 19:53 | 50.07991 | 19.80047 | 800 ft | 46 kts | 258° |
| 2026-04-25 19:54 | 50.07866 | 19.79162 | 800 ft | 119 kts | 258° |
| 2026-04-25 19:54 | 50.07647 | 19.77594 | 940 ft | 164 kts | 257° |
| 2026-04-25 19:54 | 50.07413 | 19.75873 | 1646 ft | 164 kts | 259° |
| 2026-04-25 19:54 | 50.07331 | 19.75311 | 1964 ft | 161 kts | 260° |
| 2026-04-25 19:55 | 50.06935 | 19.72668 | 3363 ft | 151 kts | 263° |
| 2026-04-25 19:55 | 50.06711 | 19.71122 | 3993 ft | 145 kts | 263° |
| 2026-04-25 19:55 | 50.06491 | 19.69560 | 4325 ft | 155 kts | 263° |
| 2026-04-25 19:55 | 50.06253 | 19.67844 | 4619 ft | 169 kts | 263° |
| 2026-04-25 19:56 | 50.06267 | 19.65986 | 4910 ft | 181 kts | 286° |
| 2026-04-25 19:56 | 50.06923 | 19.64196 | 5188 ft | 201 kts | 311° |
| 2026-04-25 19:56 | 50.08179 | 19.62993 | 5458 ft | 229 kts | 338° |
| 2026-04-25 19:56 | 50.09797 | 19.62431 | 5839 ft | 247 kts | 342° |
| 2026-04-25 19:57 | 50.11504 | 19.61839 | 6326 ft | 259 kts | 341° |
| 2026-04-25 19:57 | 50.13333 | 19.61519 | 7013 ft | 273 kts | 0° |
| 2026-04-25 19:57 | 50.15136 | 19.62603 | 7741 ft | 292 kts | 29° |
| 2026-04-25 19:57 | 50.16677 | 19.64661 | 8497 ft | 297 kts | 35° |
| 2026-04-25 19:58 | 50.18218 | 19.66819 | 9203 ft | 301 kts | 35° |
| 2026-04-25 19:58 | 50.19783 | 19.68985 | 9922 ft | 303 kts | 34° |
| 2026-04-25 19:58 | 50.21392 | 19.71182 | 10484 ft | 312 kts | 34° |
| 2026-04-25 19:58 | 50.23072 | 19.73454 | 10812 ft | 329 kts | 34° |
| 2026-04-25 19:59 | 50.24817 | 19.75824 | 11290 ft | 339 kts | 35° |
| 2026-04-25 19:59 | 50.26606 | 19.78269 | 11936 ft | 343 kts | 35° |
| 2026-04-25 19:59 | 50.28407 | 19.80736 | 12585 ft | 346 kts | 34° |
| 2026-04-25 19:59 | 50.30215 | 19.83211 | 13203 ft | 350 kts | 34° |
| 2026-04-25 20:00 | 50.32050 | 19.85721 | 13804 ft | 354 kts | 34° |
| 2026-04-25 20:00 | 50.32674 | 19.86576 | 14003 ft | 355 kts | 34° |
| 2026-04-25 20:00 | 50.35784 | 19.90831 | 15005 ft | 361 kts | 34° |
| 2026-04-25 20:00 | 50.37683 | 19.93433 | 15616 ft | 364 kts | 34° |
| 2026-04-25 20:01 | 50.41523 | 19.98705 | 16753 ft | 371 kts | 34° |
| 2026-04-25 20:01 | 50.43459 | 20.01366 | 17317 ft | 374 kts | 34° |
| 2026-04-25 20:01 | 50.45416 | 20.04063 | 17870 ft | 376 kts | 34° |
| 2026-04-25 20:02 | 50.47400 | 20.06795 | 18443 ft | 378 kts | 34° |
| 2026-04-25 20:02 | 50.49372 | 20.09526 | 18943 ft | 382 kts | 33° |
| 2026-04-25 20:02 | 50.51362 | 20.12273 | 19461 ft | 385 kts | 33° |
| 2026-04-25 20:02 | 50.53352 | 20.15027 | 19950 ft | 388 kts | 33° |
| 2026-04-25 20:03 | 50.55375 | 20.17829 | 20456 ft | 390 kts | 33° |
| 2026-04-25 20:03 | 50.57481 | 20.20551 | 20918 ft | 389 kts | 27° |
| 2026-04-25 20:03 | 50.59733 | 20.22776 | 21395 ft | 384 kts | 19° |
| 2026-04-25 20:03 | 50.62137 | 20.24561 | 21853 ft | 382 kts | 14° |
| 2026-04-25 20:04 | 50.64601 | 20.26200 | 22345 ft | 383 kts | 13° |
| 2026-04-25 20:04 | 50.67050 | 20.27803 | 22779 ft | 387 kts | 13° |
| 2026-04-25 20:04 | 50.69532 | 20.29429 | 23232 ft | 389 kts | 14° |
| 2026-04-25 20:04 | 50.72030 | 20.31082 | 23685 ft | 392 kts | 14° |
| 2026-04-25 20:05 | 50.74550 | 20.32762 | 24142 ft | 394 kts | 14° |
| 2026-04-25 20:05 | 50.77061 | 20.34444 | 24565 ft | 397 kts | 14° |
| 2026-04-25 20:05 | 50.79628 | 20.36165 | 25006 ft | 399 kts | 14° |
| 2026-04-25 20:05 | 50.82182 | 20.37884 | 25433 ft | 402 kts | 14° |
| 2026-04-25 20:06 | 50.84756 | 20.39621 | 25845 ft | 404 kts | 14° |
| 2026-04-25 20:06 | 50.87314 | 20.41343 | 26232 ft | 407 kts | 14° |
| 2026-04-25 20:06 | 50.89932 | 20.43108 | 26619 ft | 409 kts | 13° |
| 2026-04-25 20:06 | 50.92552 | 20.44883 | 26980 ft | 412 kts | 14° |
| 2026-04-25 20:07 | 50.95177 | 20.46658 | 27344 ft | 415 kts | 13° |
| 2026-04-25 20:07 | 50.97863 | 20.48479 | 27699 ft | 418 kts | 13° |
| 2026-04-25 20:07 | 51.00537 | 20.50295 | 28060 ft | 420 kts | 13° |
| 2026-04-25 20:07 | 51.03225 | 20.52122 | 28427 ft | 422 kts | 13° |
| 2026-04-25 20:08 | 51.05940 | 20.53969 | 28798 ft | 423 kts | 13° |
| 2026-04-25 20:08 | 51.08636 | 20.55808 | 29152 ft | 425 kts | 13° |
| 2026-04-25 20:08 | 51.11362 | 20.57670 | 29457 ft | 428 kts | 13° |
| 2026-04-25 20:08 | 51.14090 | 20.59534 | 29763 ft | 430 kts | 13° |
| 2026-04-25 20:09 | 51.16854 | 20.61428 | 30115 ft | 432 kts | 13° |
| 2026-04-25 20:09 | 51.19598 | 20.63310 | 30425 ft | 434 kts | 13° |
| 2026-04-25 20:09 | 51.22405 | 20.65235 | 30719 ft | 436 kts | 14° |
| 2026-04-25 20:09 | 51.25174 | 20.67139 | 30929 ft | 440 kts | 14° |
| 2026-04-25 20:10 | 51.27060 | 20.68434 | 31073 ft | 441 kts | 14° |
| 2026-04-25 20:10 | 51.30827 | 20.71090 | 31425 ft | 445 kts | 15° |
| 2026-04-25 20:10 | 51.33642 | 20.73165 | 31688 ft | 447 kts | 15° |
| 2026-04-25 20:10 | 51.36453 | 20.75262 | 31992 ft | 447 kts | 15° |
| 2026-04-25 20:11 | 51.39240 | 20.77342 | 32376 ft | 444 kts | 15° |
| 2026-04-25 20:11 | 51.42038 | 20.79433 | 32750 ft | 442 kts | 15° |
| 2026-04-25 20:11 | 51.44833 | 20.81520 | 33077 ft | 441 kts | 15° |
| 2026-04-25 20:11 | 51.47597 | 20.83582 | 33347 ft | 441 kts | 15° |
| 2026-04-25 20:12 | 51.50375 | 20.85650 | 33659 ft | 440 kts | 15° |
| 2026-04-25 20:12 | 51.53115 | 20.87702 | 33990 ft | 438 kts | 15° |
| 2026-04-25 20:12 | 51.55891 | 20.89778 | 34305 ft | 436 kts | 15° |
| 2026-04-25 20:12 | 51.56781 | 20.90444 | 34400 ft | 436 kts | 15° |
| 2026-04-25 20:13 | 51.61356 | 20.93870 | 34783 ft | 435 kts | 15° |
| 2026-04-25 20:13 | 51.64102 | 20.95929 | 34940 ft | 436 kts | 15° |
| 2026-04-25 20:13 | 51.66818 | 20.97968 | 35044 ft | 438 kts | 15° |
| 2026-04-25 20:13 | 51.69598 | 21.00057 | 35231 ft | 439 kts | 15° |
| 2026-04-25 20:14 | 51.75225 | 21.04303 | 35422 ft | 440 kts | 15° |
| 2026-04-25 20:14 | 51.77990 | 21.06391 | 35562 ft | 440 kts | 15° |
| 2026-04-25 20:14 | 51.80752 | 21.08479 | 35641 ft | 442 kts | 15° |
| 2026-04-25 20:15 | 51.83538 | 21.10587 | 35769 ft | 444 kts | 15° |
| 2026-04-25 20:15 | 51.86356 | 21.12723 | 35883 ft | 445 kts | 16° |
| 2026-04-25 20:15 | 51.91918 | 21.16956 | 36081 ft | 446 kts | 16° |
| 2026-04-25 20:16 | 51.94735 | 21.19103 | 36193 ft | 447 kts | 16° |
| 2026-04-25 20:16 | 51.97557 | 21.21256 | 36309 ft | 448 kts | 16° |
| 2026-04-25 20:16 | 52.00378 | 21.23410 | 36478 ft | 448 kts | 16° |
| 2026-04-25 20:16 | 52.03209 | 21.25573 | 36545 ft | 450 kts | 16° |
| 2026-04-25 20:17 | 52.06024 | 21.27728 | 36787 ft | 453 kts | 16° |
| 2026-04-25 20:17 | 52.08882 | 21.29927 | 36677 ft | 452 kts | 16° |
| 2026-04-25 20:17 | 52.14559 | 21.34292 | 36809 ft | 452 kts | 16° |
| 2026-04-25 20:18 | 52.20255 | 21.38683 | 36751 ft | 453 kts | 16° |
| 2026-04-25 20:18 | 52.25932 | 21.43077 | 36728 ft | 452 kts | 17° |
| 2026-04-25 20:19 | 52.31586 | 21.47462 | 36729 ft | 453 kts | 17° |
| 2026-04-25 20:19 | 52.37287 | 21.51895 | 36706 ft | 454 kts | 17° |
| 2026-04-25 20:20 | 52.42988 | 21.56339 | 36681 ft | 455 kts | 17° |
| 2026-04-25 20:20 | 52.48661 | 21.60779 | 36691 ft | 454 kts | 17° |
| 2026-04-25 20:21 | 52.54391 | 21.65272 | 36653 ft | 457 kts | 17° |
| 2026-04-25 20:21 | 52.60127 | 21.69781 | 36669 ft | 458 kts | 18° |
| 2026-04-25 20:22 | 52.63996 | 21.72832 | 36732 ft | 460 kts | 18° |
| 2026-04-25 20:22 | 52.71679 | 21.78915 | 36663 ft | 461 kts | 18° |
| 2026-04-25 20:23 | 52.77486 | 21.83520 | 36657 ft | 463 kts | 18° |
| 2026-04-25 20:23 | 52.83299 | 21.88152 | 36681 ft | 463 kts | 18° |
| 2026-04-25 20:24 | 52.89090 | 21.92773 | 36675 ft | 464 kts | 18° |
| 2026-04-25 20:24 | 52.94909 | 21.97432 | 36679 ft | 467 kts | 18° |
| 2026-04-25 20:25 | 53.00714 | 22.02098 | 36672 ft | 466 kts | 18° |
| 2026-04-25 20:25 | 53.06534 | 22.06790 | 36690 ft | 467 kts | 18° |
| 2026-04-25 20:26 | 53.12394 | 22.11522 | 36621 ft | 468 kts | 18° |
| 2026-04-25 20:26 | 53.18283 | 22.16295 | 36671 ft | 469 kts | 18° |
| 2026-04-25 20:27 | 53.24098 | 22.21029 | 36712 ft | 467 kts | 18° |
| 2026-04-25 20:27 | 53.29918 | 22.25772 | 36690 ft | 468 kts | 18° |
| 2026-04-25 20:28 | 53.35784 | 22.30570 | 36620 ft | 467 kts | 19° |
| 2026-04-25 20:28 | 53.41658 | 22.35388 | 36607 ft | 471 kts | 19° |
| 2026-04-25 20:29 | 53.47528 | 22.40219 | 36679 ft | 472 kts | 19° |
| 2026-04-25 20:29 | 53.53455 | 22.45113 | 36600 ft | 473 kts | 19° |
| 2026-04-25 20:30 | 53.59331 | 22.49985 | 36632 ft | 473 kts | 19° |
| 2026-04-25 20:30 | 53.65183 | 22.54850 | 36615 ft | 472 kts | 19° |
| 2026-04-25 20:31 | 53.71057 | 22.59747 | 36666 ft | 474 kts | 19° |
| 2026-04-25 20:31 | 53.76950 | 22.64675 | 36547 ft | 472 kts | 19° |
| 2026-04-25 20:32 | 53.82811 | 22.69590 | 36674 ft | 473 kts | 20° |
| 2026-04-25 20:32 | 53.88755 | 22.74592 | 36604 ft | 475 kts | 20° |
| 2026-04-25 20:33 | 53.94628 | 22.79554 | 36584 ft | 474 kts | 20° |
| 2026-04-25 20:33 | 53.98574 | 22.82895 | 36654 ft | 474 kts | 20° |
| 2026-04-25 20:34 | 54.06457 | 22.89521 | 36605 ft | 472 kts | 18° |
| 2026-04-25 20:34 | 54.12486 | 22.93740 | 36570 ft | 470 kts | 15° |
| 2026-04-25 20:35 | 54.18562 | 22.97764 | 36571 ft | 469 kts | 15° |
| 2026-04-25 20:35 | 54.24612 | 23.01793 | 36580 ft | 469 kts | 15° |
| 2026-04-25 20:36 | 54.30767 | 23.05476 | 36578 ft | 464 kts | 9° |
| 2026-04-25 20:36 | 54.36968 | 23.07966 | 36596 ft | 460 kts | 4° |
| 2026-04-25 20:37 | 54.43257 | 23.09973 | 36552 ft | 460 kts | 4° |
| 2026-04-25 20:37 | 54.49529 | 23.11969 | 36542 ft | 459 kts | 4° |
| 2026-04-25 20:38 | 54.55750 | 23.13971 | 36536 ft | 459 kts | 5° |
| 2026-04-25 20:38 | 54.62002 | 23.15993 | 36603 ft | 459 kts | 5° |
| 2026-04-25 20:39 | 54.68257 | 23.18034 | 36618 ft | 460 kts | 5° |
| 2026-04-25 20:39 | 54.72429 | 23.19393 | 36580 ft | 460 kts | 5° |
| 2026-04-25 20:40 | 54.80809 | 23.22134 | 36559 ft | 461 kts | 5° |
| 2026-04-25 20:40 | 54.87082 | 23.24198 | 36609 ft | 460 kts | 5° |
| 2026-04-25 20:41 | 54.93363 | 23.26270 | 36597 ft | 460 kts | 5° |
| 2026-04-25 20:41 | 54.99587 | 23.28327 | 36632 ft | 460 kts | 5° |
| 2026-04-25 20:42 | 55.05871 | 23.30414 | 36556 ft | 458 kts | 5° |
| 2026-04-25 20:42 | 55.12099 | 23.32483 | 36554 ft | 459 kts | 5° |
| 2026-04-25 20:43 | 55.18385 | 23.34578 | 36566 ft | 460 kts | 5° |
| 2026-04-25 20:43 | 55.24643 | 23.36675 | 36568 ft | 460 kts | 6° |
| 2026-04-25 20:44 | 55.30950 | 23.38802 | 36593 ft | 460 kts | 5° |
| 2026-04-25 20:44 | 55.37215 | 23.40911 | 36527 ft | 460 kts | 6° |
| 2026-04-25 20:45 | 55.43467 | 23.43024 | 36576 ft | 461 kts | 6° |
| 2026-04-25 20:45 | 55.49781 | 23.45167 | 36534 ft | 460 kts | 6° |
| 2026-04-25 20:46 | 55.56046 | 23.47299 | 36555 ft | 461 kts | 6° |
| 2026-04-25 20:46 | 55.62316 | 23.49440 | 36583 ft | 462 kts | 6° |
| 2026-04-25 20:47 | 55.68602 | 23.51594 | 36606 ft | 461 kts | 6° |
| 2026-04-25 20:47 | 55.74910 | 23.53764 | 36625 ft | 461 kts | 6° |
| 2026-04-25 20:48 | 55.81210 | 23.55935 | 36603 ft | 461 kts | 6° |
| 2026-04-25 20:48 | 55.87496 | 23.58112 | 36619 ft | 461 kts | 6° |
| 2026-04-25 20:49 | 55.93785 | 23.60294 | 36604 ft | 461 kts | 7° |
| 2026-04-25 20:49 | 56.00085 | 23.62495 | 36649 ft | 461 kts | 6° |
| 2026-04-25 20:50 | 56.06332 | 23.64677 | 36583 ft | 461 kts | 7° |
| 2026-04-25 20:50 | 56.12663 | 23.66997 | 36605 ft | 462 kts | 8° |
| 2026-04-25 20:51 | 56.18904 | 23.69315 | 36595 ft | 460 kts | 8° |
| 2026-04-25 20:51 | 56.25164 | 23.71643 | 36565 ft | 459 kts | 8° |
| 2026-04-25 20:52 | 56.30367 | 23.73578 | 36552 ft | 459 kts | 8° |
| 2026-04-25 20:52 | 56.37654 | 23.76296 | 36564 ft | 460 kts | 8° |
| 2026-04-25 20:53 | 56.43932 | 23.78646 | 36538 ft | 461 kts | 8° |
| 2026-04-25 20:53 | 56.50213 | 23.81005 | 36577 ft | 461 kts | 8° |
| 2026-04-25 20:54 | 56.56461 | 23.83361 | 36556 ft | 461 kts | 8° |
| 2026-04-25 20:54 | 56.62757 | 23.85741 | 36566 ft | 461 kts | 8° |
| 2026-04-25 20:55 | 56.69024 | 23.88122 | 36559 ft | 462 kts | 8° |
| 2026-04-25 20:55 | 56.75328 | 23.90523 | 36571 ft | 463 kts | 8° |
| 2026-04-25 20:56 | 56.81639 | 23.92934 | 36579 ft | 465 kts | 8° |
| 2026-04-25 20:56 | 56.87941 | 23.95349 | 36599 ft | 465 kts | 8° |
| 2026-04-25 20:57 | 56.94263 | 23.97782 | 36589 ft | 465 kts | 8° |
| 2026-04-25 20:57 | 57.00591 | 24.00227 | 36606 ft | 465 kts | 8° |
| 2026-04-25 20:58 | 57.06905 | 24.02672 | 36583 ft | 464 kts | 8° |
| 2026-04-25 20:58 | 57.13209 | 24.05123 | 36586 ft | 464 kts | 8° |
| 2026-04-25 20:59 | 57.19525 | 24.07587 | 36567 ft | 463 kts | 8° |
| 2026-04-25 20:59 | 57.25786 | 24.10036 | 36554 ft | 464 kts | 8° |
| 2026-04-25 21:00 | 57.29976 | 24.11681 | 36541 ft | 464 kts | 8° |
| 2026-04-25 21:01 | 57.41511 | 24.16231 | 36532 ft | 463 kts | 8° |
| 2026-04-25 21:01 | 57.47807 | 24.18727 | 36507 ft | 462 kts | 8° |
| 2026-04-25 21:02 | 57.54054 | 24.21210 | 36541 ft | 462 kts | 8° |
| 2026-04-25 21:02 | 57.60324 | 24.23714 | 36524 ft | 462 kts | 8° |
| 2026-04-25 21:03 | 57.66616 | 24.26235 | 36516 ft | 463 kts | 8° |
| 2026-04-25 21:03 | 57.72894 | 24.28758 | 36504 ft | 463 kts | 8° |
| 2026-04-25 21:04 | 57.79142 | 24.31280 | 36513 ft | 462 kts | 8° |
| 2026-04-25 21:04 | 57.85403 | 24.33814 | 36500 ft | 463 kts | 8° |
| 2026-04-25 21:05 | 57.91686 | 24.36366 | 36493 ft | 462 kts | 8° |
| 2026-04-25 21:05 | 57.97874 | 24.38890 | 36066 ft | 455 kts | 8° |
| 2026-04-25 21:05 | 58.00980 | 24.40159 | 35671 ft | 454 kts | 8° |
| 2026-04-25 21:06 | 58.04071 | 24.41423 | 35298 ft | 452 kts | 8° |
| 2026-04-25 21:06 | 58.07125 | 24.42676 | 35053 ft | 450 kts | 8° |
| 2026-04-25 21:06 | 58.10142 | 24.43915 | 34825 ft | 451 kts | 8° |
| 2026-04-25 21:06 | 58.12213 | 24.44768 | 34679 ft | 451 kts | 8° |
| 2026-04-25 21:07 | 58.16302 | 24.46451 | 34376 ft | 451 kts | 9° |
| 2026-04-25 21:07 | 58.19373 | 24.47718 | 34166 ft | 451 kts | 9° |
| 2026-04-25 21:07 | 58.22423 | 24.48980 | 33942 ft | 452 kts | 9° |
| 2026-04-25 21:07 | 58.25475 | 24.50245 | 33726 ft | 452 kts | 9° |
| 2026-04-25 21:08 | 58.28562 | 24.51528 | 33500 ft | 453 kts | 9° |
| 2026-04-25 21:08 | 58.31634 | 24.52809 | 33274 ft | 453 kts | 9° |
| 2026-04-25 21:08 | 58.34725 | 24.54099 | 33051 ft | 454 kts | 9° |
| 2026-04-25 21:08 | 58.37780 | 24.55376 | 32844 ft | 455 kts | 9° |
| 2026-04-25 21:09 | 58.43924 | 24.57948 | 32459 ft | 455 kts | 9° |
| 2026-04-25 21:09 | 58.47021 | 24.59249 | 32275 ft | 456 kts | 9° |
| 2026-04-25 21:09 | 58.50118 | 24.60553 | 32086 ft | 456 kts | 9° |
| 2026-04-25 21:10 | 58.53204 | 24.61855 | 31898 ft | 456 kts | 9° |
| 2026-04-25 21:10 | 58.56300 | 24.63162 | 31699 ft | 454 kts | 9° |
| 2026-04-25 21:10 | 58.59358 | 24.64453 | 31407 ft | 447 kts | 9° |
| 2026-04-25 21:10 | 58.62361 | 24.65728 | 30959 ft | 445 kts | 10° |
| 2026-04-25 21:11 | 58.65394 | 24.67014 | 30475 ft | 443 kts | 10° |
| 2026-04-25 21:11 | 58.68361 | 24.68275 | 30045 ft | 440 kts | 10° |
| 2026-04-25 21:11 | 58.71368 | 24.69556 | 29573 ft | 438 kts | 10° |
| 2026-04-25 21:11 | 58.74304 | 24.70809 | 29153 ft | 434 kts | 10° |
| 2026-04-25 21:12 | 58.77235 | 24.72061 | 28754 ft | 429 kts | 10° |
| 2026-04-25 21:12 | 58.80137 | 24.73305 | 28369 ft | 425 kts | 10° |
| 2026-04-25 21:12 | 58.82977 | 24.74524 | 27989 ft | 421 kts | 10° |
| 2026-04-25 21:12 | 58.84879 | 24.75339 | 27731 ft | 418 kts | 10° |
| 2026-04-25 21:13 | 58.88641 | 24.76958 | 27206 ft | 413 kts | 10° |
| 2026-04-25 21:13 | 58.91401 | 24.78147 | 26816 ft | 409 kts | 10° |
| 2026-04-25 21:13 | 58.94176 | 24.79153 | 26373 ft | 405 kts | 6° |
| 2026-04-25 21:13 | 58.96959 | 24.79905 | 25646 ft | 412 kts | 6° |
| 2026-04-25 21:14 | 58.99806 | 24.80631 | 24977 ft | 414 kts | 6° |
| 2026-04-25 21:14 | 59.02646 | 24.81375 | 24478 ft | 411 kts | 6° |
| 2026-04-25 21:14 | 59.05459 | 24.82131 | 24011 ft | 405 kts | 6° |
| 2026-04-25 21:14 | 59.08194 | 24.82873 | 23478 ft | 400 kts | 6° |
| 2026-04-25 21:15 | 59.10962 | 24.83638 | 22888 ft | 397 kts | 4° |
| 2026-04-25 21:15 | 59.13697 | 24.84398 | 22388 ft | 392 kts | 6° |
| 2026-04-25 21:15 | 59.16394 | 24.85152 | 21845 ft | 388 kts | 6° |
| 2026-04-25 21:15 | 59.19051 | 24.85900 | 21256 ft | 384 kts | 6° |
| 2026-04-25 21:16 | 59.21663 | 24.86635 | 20707 ft | 379 kts | 6° |
| 2026-04-25 21:16 | 59.24266 | 24.87369 | 20165 ft | 376 kts | 6° |
| 2026-04-25 21:16 | 59.26830 | 24.88093 | 19609 ft | 373 kts | 6° |
| 2026-04-25 21:16 | 59.29363 | 24.88810 | 19096 ft | 369 kts | 6° |
| 2026-04-25 21:17 | 59.31880 | 24.89518 | 18603 ft | 365 kts | 6° |
| 2026-04-25 21:17 | 59.34394 | 24.90229 | 18107 ft | 361 kts | 6° |
| 2026-04-25 21:17 | 59.36861 | 24.90931 | 17615 ft | 357 kts | 6° |
| 2026-04-25 21:17 | 59.39312 | 24.91632 | 17120 ft | 353 kts | 6° |
| 2026-04-25 21:18 | 59.41716 | 24.92314 | 16535 ft | 352 kts | 6° |
| 2026-04-25 21:18 | 59.44129 | 24.93000 | 16015 ft | 349 kts | 6° |
| 2026-04-25 21:18 | 59.46502 | 24.93680 | 15557 ft | 345 kts | 6° |
| 2026-04-25 21:18 | 59.48859 | 24.94358 | 15111 ft | 340 kts | 6° |
| 2026-04-25 21:19 | 59.51187 | 24.95025 | 14690 ft | 335 kts | 6° |
| 2026-04-25 21:19 | 59.53461 | 24.95676 | 14263 ft | 331 kts | 6° |
| 2026-04-25 21:19 | 59.55706 | 24.96319 | 13807 ft | 328 kts | 7° |
| 2026-04-25 21:19 | 59.57960 | 24.96961 | 13306 ft | 326 kts | 7° |
| 2026-04-25 21:20 | 59.60180 | 24.97604 | 12858 ft | 322 kts | 7° |
| 2026-04-25 21:20 | 59.60912 | 24.97817 | 12711 ft | 321 kts | 7° |
| 2026-04-25 21:20 | 59.64558 | 24.98875 | 11996 ft | 315 kts | 6° |
| 2026-04-25 21:20 | 59.66700 | 24.99497 | 11596 ft | 310 kts | 6° |
| 2026-04-25 21:21 | 59.68821 | 25.00109 | 11169 ft | 307 kts | 7° |
| 2026-04-25 21:21 | 59.70903 | 25.00714 | 10726 ft | 304 kts | 6° |
| 2026-04-25 21:21 | 59.72994 | 25.01322 | 10271 ft | 302 kts | 6° |
| 2026-04-25 21:21 | 59.75035 | 25.01913 | 9839 ft | 299 kts | 7° |
| 2026-04-25 21:22 | 59.77091 | 25.02508 | 9512 ft | 292 kts | 7° |
| 2026-04-25 21:22 | 59.79033 | 25.03074 | 9432 ft | 277 kts | 7° |
| 2026-04-25 21:22 | 59.80894 | 25.03618 | 9388 ft | 261 kts | 7° |
| 2026-04-25 21:22 | 59.82660 | 25.04134 | 9097 ft | 257 kts | 7° |
| 2026-04-25 21:23 | 59.84415 | 25.04646 | 8713 ft | 255 kts | 7° |
| 2026-04-25 21:23 | 59.86140 | 25.05151 | 8359 ft | 253 kts | 8° |
| 2026-04-25 21:23 | 59.87863 | 25.05657 | 8013 ft | 250 kts | 8° |
| 2026-04-25 21:23 | 59.89570 | 25.06157 | 7679 ft | 247 kts | 8° |
| 2026-04-25 21:24 | 59.91263 | 25.06656 | 7351 ft | 243 kts | 8° |
| 2026-04-25 21:24 | 59.92913 | 25.07141 | 7031 ft | 240 kts | 8° |
| 2026-04-25 21:24 | 59.94566 | 25.07628 | 6710 ft | 237 kts | 8° |
| 2026-04-25 21:24 | 59.96180 | 25.08103 | 6408 ft | 233 kts | 8° |
| 2026-04-25 21:25 | 59.97743 | 25.08565 | 6122 ft | 228 kts | 8° |
| 2026-04-25 21:25 | 59.99309 | 25.09029 | 5845 ft | 224 kts | 8° |
| 2026-04-25 21:25 | 60.00828 | 25.09480 | 5561 ft | 220 kts | 8° |
| 2026-04-25 21:25 | 60.02333 | 25.09926 | 5273 ft | 216 kts | 7° |
| 2026-04-25 21:26 | 60.03807 | 25.10363 | 4985 ft | 214 kts | 7° |
| 2026-04-25 21:26 | 60.05246 | 25.10790 | 4694 ft | 211 kts | 7° |
| 2026-04-25 21:26 | 60.06692 | 25.11222 | 4390 ft | 209 kts | 6° |
| 2026-04-25 21:26 | 60.08118 | 25.11647 | 4098 ft | 206 kts | 6° |
| 2026-04-25 21:27 | 60.09522 | 25.12064 | 3821 ft | 203 kts | 6° |
| 2026-04-25 21:27 | 60.10901 | 25.12475 | 3696 ft | 193 kts | 6° |
| 2026-04-25 21:27 | 60.12192 | 25.12860 | 3683 ft | 184 kts | 6° |
| 2026-04-25 21:27 | 60.13435 | 25.13227 | 3661 ft | 184 kts | 6° |
| 2026-04-25 21:28 | 60.14727 | 25.13610 | 3586 ft | 184 kts | 6° |
| 2026-04-25 21:28 | 60.15985 | 25.13664 | 3404 ft | 179 kts | 347° |
| 2026-04-25 21:28 | 60.17086 | 25.12667 | 3354 ft | 166 kts | 337° |
| 2026-04-25 21:28 | 60.18098 | 25.11634 | 3125 ft | 158 kts | 338° |
| 2026-04-25 21:29 | 60.19053 | 25.10682 | 2841 ft | 153 kts | 337° |
| 2026-04-25 21:29 | 60.19987 | 25.09747 | 2537 ft | 148 kts | 337° |
| 2026-04-25 21:29 | 60.20893 | 25.08834 | 2313 ft | 140 kts | 336° |
| 2026-04-25 21:29 | 60.21739 | 25.07976 | 2128 ft | 136 kts | 336° |
| 2026-04-25 21:30 | 60.22596 | 25.07109 | 1953 ft | 137 kts | 336° |
| 2026-04-25 21:30 | 60.23451 | 25.06245 | 1776 ft | 138 kts | 336° |
| 2026-04-25 21:30 | 60.24278 | 25.05403 | 1625 ft | 129 kts | 335° |
| 2026-04-25 21:30 | 60.24811 | 25.04858 | 1479 ft | 124 kts | 335° |
| 2026-04-25 21:31 | 60.25826 | 25.03824 | 1261 ft | 122 kts | 335° |
| 2026-04-25 21:31 | 60.26585 | 25.03052 | 1095 ft | 121 kts | 334° |
| 2026-04-25 21:31 | 60.27340 | 25.02275 | 955 ft | 121 kts | 334° |
| 2026-04-25 21:31 | 60.28091 | 25.01511 | 796 ft | 120 kts | 334° |
| 2026-04-25 21:32 | 60.28844 | 25.00747 | 625 ft | 120 kts | 333° |
| 2026-04-25 21:32 | 60.29588 | 24.99979 | 472 ft | 120 kts | 333° |
| 2026-04-25 21:32 | 60.30324 | 24.99223 | 309 ft | 118 kts | 332° |
| 2026-04-25 21:32 | 60.31049 | 24.98480 | 195 ft | 108 kts | 332° |
| 2026-04-25 21:33 | 60.31524 | 24.97988 | 188 ft | 59 kts | 333° |
| 2026-04-25 21:33 | 60.31862 | 24.97644 | 188 ft | 49 kts | 332° |
| 2026-04-25 21:33 | 60.32148 | 24.97346 | 188 ft | 43 kts | 332° |
| 2026-04-25 21:33 | 60.32343 | 24.97152 | 188 ft | 22 kts | 331° |
| 2026-04-25 21:34 | 60.32381 | 24.96956 | 188 ft | 15 kts | 239° |
| 2026-04-25 21:34 | 60.32342 | 24.96870 | 188 ft | 1 kts | 226° |
| 2026-04-25 21:34 | 60.32328 | 24.96841 | 188 ft | 4 kts | 227° |
| 2026-04-25 21:34 | 60.32298 | 24.96772 | 188 ft | 8 kts | 230° |
| 2026-04-25 21:35 | 60.32240 | 24.96739 | 188 ft | 12 kts | 158° |
| 2026-04-25 21:35 | 60.32150 | 24.96845 | 188 ft | 15 kts | 150° |
| 2026-04-25 21:35 | 60.32048 | 24.96961 | 188 ft | 17 kts | 153° |
| 2026-04-25 21:35 | 60.31937 | 24.97080 | 188 ft | 18 kts | 152° |
| 2026-04-25 21:36 | 60.31820 | 24.97201 | 188 ft | 18 kts | 153° |
| 2026-04-25 21:36 | 60.31704 | 24.97321 | 188 ft | 18 kts | 154° |
| 2026-04-25 21:36 | 60.31631 | 24.97395 | 188 ft | 5 kts | 152° |
| 2026-04-25 21:36 | 60.31593 | 24.97427 | 188 ft | 6 kts | 178° |
| 2026-04-25 21:37 | 60.31576 | 24.97396 | 188 ft | 3 kts | 239° |
| 2026-04-25 21:37 | 60.31572 | 24.97384 | 188 ft | 2 kts | 240° |
| 2026-04-25 21:37 | 60.31560 | 24.97339 | 188 ft | 1 kts | 242° |
| 2026-04-25 21:37 | 60.31560 | 24.97337 | 188 ft | 0 kts | 242° |